Close

Questo sito utlizza cookie. Può leggere come li usiamo nella nostra Privacy Policy.

Ronchi Tower
Ronchi Tower

From Facebook

METAR & TAF

2018/07/16 19:50 LIPQ 161950Z VRB01KT 9999 VCTS FEW025CB BKN060 23/19 Q1009
2018/07/16 18:21 TAF LIPQ 161700Z 1618/1718 VRB05KT 9999 SCT040 TEMPO 1618/1621 TSRA
2018/07/16 19:50 LIPZ 161950Z 26005KT 240V310 CAVOK 22/18 Q1009 NOSIG
2018/07/16 18:21 TAF LIPZ 161700Z 1618/1724 VRB05KT 9999 FEW030 TEMPO 1618/1622 4000 TSRA BECMG 1708/1710 16010KT BECMG 1717/1719 VRB05KT
2018/07/16 19:50 LIPH 161950Z 03004KT 350V070 9999 FEW070 22/20 Q1009
2018/07/16 18:21 TAF LIPH 161700Z 1618/1718 VRB05KT 9999 SCT040 TEMPO 1618/1621 4000 TSRA
2018/07/16 19:50 LIRF 161950Z 20009KT 9999 -RA SCT030 26/21 Q1012 RETS NOSIG
2018/07/16 18:23 TAF LIRF 161700Z 1618/1724 18013KT 9999 SCT030 TEMPO 1620/1703 TSRA BECMG 1621/1623 VRB05KT TEMPO 1703/1706 RA BECMG 1709/1711 28015KT
2018/07/16 19:50 LIML 161950Z 24003KT 200V270 9999 FEW030 SCT080 21/19 Q1010 NOSIG
2018/07/16 18:21 TAF TAF LIML 161700Z 1618/1718 VRB05KT 9999 SCT025 SCT060
2018/07/16 19:50 EDDM 161950Z 34002KT CAVOK 18/15 Q1013 NOSIG
2018/07/16 18:31 TAF EDDM 161700Z 1618/1724 VRB03KT CAVOK BECMG 1706/1708 27010KT PROB30 TEMPO 1712/1716 28020G35KT TSRA SCT050CB BECMG 1719/1721 25005KT
2018/07/16 19:50 EGSS 161950Z AUTO 26005KT 9999 NCD 24/11 Q1012
2018/07/16 18:15 TAF EGSS 161656Z 1618/1724 27007KT 9999 FEW045

FlightRadar24

Radar Meteo

Traffic data

Marzo 2018

Passeggeri: 57555-3,4% (rank: 23)
Nazionali 39679 +1,0% 21°
Internazionali 17689 -11,7% 23°

Movimenti: 1074-16,3% (rank: 21)
Tot commerciale 653 -10,3% 22°
Aviazione generale 421 -24,1%

Cargo (tons): 96,3109,5% (rank: 18)

Gennaio - Marzo 2018

Passeggeri: 155953-1,4% (rank: 23)
Nazionali 108431 +3,9% 21°
Internazionali 47066 -11,5% 22°

Movimenti: 3163-14,5% (rank: 21)
Tot commerciale 1876 -7,3% 21°
Aviazione generale 1287 -23,3%

Cargo (tons): 125,6+16,7% (rank: 21)

Photo

Douglas DC-6B
Douglas DC-6B
Distinct views: 13
Douglas DC-6B
Douglas DC-6B
Distinct views: 58
Eurocopter EC-145
Eurocopter EC-145
Distinct views: 194
Cessna 182T Skylane
Cessna 182T Skylane
Total views: 662